Time,TemperatureF,DewpointF,PressureIn,WindDirection,WindDirectionDegrees,WindSpeedMPH,WindSpeedGustMPH,Humidity,HourlyPrecipIn,Conditions,Clouds,dailyrainin,SoftwareType,DateUTC
2013-05-08 00:04:00,50.9,45.8,29.61,SSW,203,0.0,0.0,83,0.00,,,0.00,WUHU216HW,2013-05-08 07:04:00,
2013-05-08 00:09:00,50.7,45.6,29.61,SSW,203,0.0,0.0,83,0.00,,,0.00,WUHU216HW,2013-05-08 07:09:00,
2013-05-08 00:14:00,50.7,45.6,29.61,SSW,203,0.0,0.0,83,0.00,,,0.00,WUHU216HW,2013-05-08 07:14:00,
2013-05-08 00:19:00,50.5,45.5,29.61,SSW,203,0.0,0.0,83,0.00,,,0.00,WUHU216HW,2013-05-08 07:19:00,
2013-05-08 00:24:00,50.3,45.3,29.61,SSW,203,0.0,0.0,83,0.00,,,0.00,WUHU216HW,2013-05-08 07:24:00,
2013-05-08 00:29:00,50.1,45.1,29.62,SSW,203,0.0,0.0,83,0.00,,,0.00,WUHU216HW,2013-05-08 07:29:00,
2013-05-08 00:34:00,50.0,44.9,29.62,SSW,203,0.0,0.0,83,0.00,,,0.00,WUHU216HW,2013-05-08 07:34:00,
2013-05-08 00:39:00,49.8,44.7,29.62,SSW,203,0.0,0.0,83,0.00,,,0.00,WUHU216HW,2013-05-08 07:39:00,
2013-05-08 00:44:00,49.8,44.7,29.62,SSW,203,0.0,0.0,83,0.00,,,0.00,WUHU216HW,2013-05-08 07:44:00,
2013-05-08 00:49:00,49.6,44.9,29.62,SSW,203,0.0,0.0,84,0.00,,,0.00,WUHU216HW,2013-05-08 07:49:00,
2013-05-08 00:54:00,49.4,44.7,29.62,SSW,203,0.0,0.0,84,0.00,,,0.00,WUHU216HW,2013-05-08 07:54:00,
2013-05-08 01:00:00,49.2,44.5,29.63,SSW,203,0.0,0.0,84,0.00,,,0.00,WUHU216HW,2013-05-08 08:00:00,
2013-05-08 01:05:00,49.1,44.4,29.62,SSW,203,0.0,0.0,84,0.00,,,0.00,WUHU216HW,2013-05-08 08:05:00,
2013-05-08 01:10:00,48.9,44.2,29.62,SSW,203,0.0,0.0,84,0.00,,,0.00,WUHU216HW,2013-05-08 08:10:00,
2013-05-08 01:15:00,48.7,44.0,29.62,SSW,203,0.0,0.0,84,0.00,,,0.00,WUHU216HW,2013-05-08 08:15:00,
2013-05-08 01:20:00,48.7,44.0,29.62,SSW,203,0.0,0.0,84,0.00,,,0.00,WUHU216HW,2013-05-08 08:20:00,
2013-05-08 01:25:00,48.5,43.8,29.62,SSW,203,0.0,0.0,84,0.00,,,0.00,WUHU216HW,2013-05-08 08:25:00,
2013-05-08 01:30:00,48.3,43.7,29.62,SSW,203,0.0,0.0,84,0.00,,,0.00,WUHU216HW,2013-05-08 08:30:00,
2013-05-08 01:35:00,48.0,43.3,29.62,SSW,203,0.0,0.0,84,0.00,,,0.00,WUHU216HW,2013-05-08 08:35:00,
2013-05-08 01:40:00,48.0,43.7,29.63,SSW,203,0.0,0.0,85,0.00,,,0.00,WUHU216HW,2013-05-08 08:40:00,
2013-05-08 01:45:00,47.8,43.5,29.63,SSW,203,0.0,0.0,85,0.00,,,0.00,WUHU216HW,2013-05-08 08:45:00,
2013-05-08 01:50:00,47.6,43.3,29.63,SSW,203,0.0,0.0,85,0.00,,,0.00,WUHU216HW,2013-05-08 08:50:00,
2013-05-08 01:55:00,47.4,43.1,29.63,SSW,203,0.0,0.0,85,0.00,,,0.00,WUHU216HW,2013-05-08 08:55:00,
2013-05-08 02:00:00,47.3,43.0,29.64,SSW,203,0.0,0.0,85,0.00,,,0.00,WUHU216HW,2013-05-08 09:00:00,
2013-05-08 02:05:00,47.3,43.0,29.63,SSW,203,0.0,0.0,85,0.00,,,0.00,WUHU216HW,2013-05-08 09:05:00,
2013-05-08 02:10:00,47.1,42.8,29.64,SSW,203,0.0,0.0,85,0.00,,,0.00,WUHU216HW,2013-05-08 09:10:00,
2013-05-08 02:15:00,46.9,42.6,29.64,SSW,203,0.0,0.0,85,0.00,,,0.00,WUHU216HW,2013-05-08 09:15:00,
2013-05-08 02:20:00,46.7,42.5,29.63,SSW,203,0.0,0.0,85,0.00,,,0.00,WUHU216HW,2013-05-08 09:20:00,
2013-05-08 02:25:00,46.5,42.3,29.64,SSW,203,0.0,0.0,85,0.00,,,0.00,WUHU216HW,2013-05-08 09:25:00,
2013-05-08 02:30:00,46.5,42.3,29.64,SSW,203,0.0,0.0,85,0.00,,,0.00,WUHU216HW,2013-05-08 09:30:00,
2013-05-08 02:35:00,46.2,42.2,29.64,SSW,203,0.0,0.0,86,0.00,,,0.00,WUHU216HW,2013-05-08 09:35:00,
2013-05-08 02:40:00,46.2,42.2,29.64,SSW,203,0.0,0.0,86,0.00,,,0.00,WUHU216HW,2013-05-08 09:40:00,
2013-05-08 02:45:00,46.2,42.2,29.64,SSW,203,0.0,0.0,86,0.00,,,0.00,WUHU216HW,2013-05-08 09:45:00,
2013-05-08 02:50:00,46.2,42.2,29.64,SSW,203,0.0,0.0,86,0.00,,,0.00,WUHU216HW,2013-05-08 09:50:00,
2013-05-08 02:55:00,46.0,42.1,29.64,SSW,203,0.0,0.0,86,0.00,,,0.00,WUHU216HW,2013-05-08 09:55:00,
2013-05-08 03:00:00,46.0,42.1,29.65,SSW,203,0.0,0.0,86,0.00,,,0.00,WUHU216HW,2013-05-08 10:00:00,
2013-05-08 03:05:00,46.0,42.1,29.64,SSW,203,0.0,0.0,86,0.00,,,0.00,WUHU216HW,2013-05-08 10:05:00,
2013-05-08 03:10:00,46.0,42.1,29.65,SSW,203,0.0,0.0,86,0.00,,,0.00,WUHU216HW,2013-05-08 10:10:00,
2013-05-08 03:15:00,46.0,42.1,29.64,SSW,203,0.0,0.0,86,0.00,,,0.00,WUHU216HW,2013-05-08 10:15:00,
2013-05-08 03:20:00,45.6,41.7,29.65,SSW,203,0.0,0.0,86,0.00,,,0.00,WUHU216HW,2013-05-08 10:20:00,
2013-05-08 03:25:00,45.6,41.7,29.65,SSW,203,0.0,0.0,86,0.00,,,0.00,WUHU216HW,2013-05-08 10:25:00,
2013-05-08 03:30:00,45.5,41.5,29.65,SSW,203,0.0,0.0,86,0.00,,,0.00,WUHU216HW,2013-05-08 10:30:00,
2013-05-08 03:35:00,45.3,41.3,29.65,SSW,203,0.0,0.0,86,0.00,,,0.00,WUHU216HW,2013-05-08 10:35:00,
2013-05-08 03:40:00,45.3,41.3,29.65,SSW,203,0.0,0.0,86,0.00,,,0.00,WUHU216HW,2013-05-08 10:40:00,
2013-05-08 03:45:00,45.1,41.2,29.65,SSW,203,0.0,0.0,86,0.00,,,0.00,WUHU216HW,2013-05-08 10:45:00,
2013-05-08 03:50:00,45.1,41.2,29.65,SSW,203,0.0,0.0,86,0.00,,,0.00,WUHU216HW,2013-05-08 10:50:00,
2013-05-08 03:55:00,45.1,41.5,29.66,SSW,203,0.0,0.0,87,0.00,,,0.00,WUHU216HW,2013-05-08 10:55:00,
2013-05-08 04:00:00,44.9,41.0,29.66,SSW,203,0.0,0.0,86,0.00,,,0.00,WUHU216HW,2013-05-08 11:00:00,
2013-05-08 04:05:00,44.9,41.3,29.65,SSW,203,0.0,0.0,87,0.00,,,0.00,WUHU216HW,2013-05-08 11:05:00,
2013-05-08 04:10:00,44.9,41.3,29.66,SSW,203,0.0,0.0,87,0.00,,,0.00,WUHU216HW,2013-05-08 11:10:00,
2013-05-08 04:15:00,45.1,41.5,29.66,SSW,203,0.0,0.0,87,0.00,,,0.00,WUHU216HW,2013-05-08 11:15:00,
2013-05-08 04:20:00,45.1,41.5,29.66,SSW,203,0.0,0.0,87,0.00,,,0.00,WUHU216HW,2013-05-08 11:20:00,
2013-05-08 04:25:00,45.1,41.5,29.66,SSW,203,0.0,0.0,87,0.00,,,0.00,WUHU216HW,2013-05-08 11:25:00,
2013-05-08 04:30:00,45.1,41.5,29.66,SSW,203,0.0,0.0,87,0.00,,,0.00,WUHU216HW,2013-05-08 11:30:00,
2013-05-08 04:35:00,45.3,41.7,29.66,SSW,203,0.0,0.0,87,0.00,,,0.00,WUHU216HW,2013-05-08 11:35:00,
2013-05-08 04:40:00,45.3,41.7,29.66,SSW,203,0.0,0.0,87,0.00,,,0.00,WUHU216HW,2013-05-08 11:40:00,
2013-05-08 04:45:00,45.3,41.7,29.66,SSW,203,0.0,0.0,87,0.00,,,0.00,WUHU216HW,2013-05-08 11:45:00,
2013-05-08 04:50:00,45.5,41.8,29.66,SSW,203,0.0,0.0,87,0.00,,,0.00,WUHU216HW,2013-05-08 11:50:00,
2013-05-08 04:55:00,45.5,41.8,29.66,SSW,203,0.0,0.0,87,0.00,,,0.00,WUHU216HW,2013-05-08 11:55:00,
2013-05-08 05:00:00,45.5,41.8,29.66,SSW,203,0.0,0.0,87,0.00,,,0.00,WUHU216HW,2013-05-08 12:00:00,
2013-05-08 05:05:00,45.5,41.8,29.66,SSW,203,0.0,0.0,87,0.00,,,0.00,WUHU216HW,2013-05-08 12:05:00,
2013-05-08 05:10:00,45.6,42.3,29.67,SSW,203,0.0,0.0,88,0.00,,,0.00,WUHU216HW,2013-05-08 12:10:00,
2013-05-08 05:15:00,45.6,42.3,29.66,SSW,203,0.0,0.0,88,0.00,,,0.00,WUHU216HW,2013-05-08 12:15:00,
2013-05-08 05:20:00,45.6,42.3,29.66,SSW,203,0.0,0.0,88,0.00,,,0.00,WUHU216HW,2013-05-08 12:20:00,
2013-05-08 05:25:00,45.6,42.3,29.67,SSW,203,0.0,0.0,88,0.00,,,0.00,WUHU216HW,2013-05-08 12:25:00,
2013-05-08 05:30:00,45.8,42.5,29.66,SSW,203,0.0,0.0,88,0.00,,,0.00,WUHU216HW,2013-05-08 12:30:00,
2013-05-08 05:36:00,46.0,42.7,29.67,SSW,203,0.0,0.0,88,0.00,,,0.00,WUHU216HW,2013-05-08 12:36:00,
2013-05-08 05:41:00,46.0,42.7,29.66,SSW,203,0.0,0.0,88,0.00,,,0.00,WUHU216HW,2013-05-08 12:41:00,
2013-05-08 05:46:00,46.0,42.7,29.67,SSW,203,0.0,0.0,88,0.00,,,0.00,WUHU216HW,2013-05-08 12:46:00,
2013-05-08 05:51:00,46.2,42.9,29.66,SSW,203,0.0,0.0,88,0.00,,,0.00,WUHU216HW,2013-05-08 12:51:00,
2013-05-08 05:56:00,46.2,42.9,29.67,SSW,203,0.0,0.0,88,0.00,,,0.00,WUHU216HW,2013-05-08 12:56:00,
2013-05-08 06:01:00,46.2,42.9,29.67,SSW,203,0.0,0.0,88,0.00,,,0.00,WUHU216HW,2013-05-08 13:01:00,
2013-05-08 06:06:00,46.4,43.0,29.67,SSW,203,0.0,0.0,88,0.00,,,0.00,WUHU216HW,2013-05-08 13:06:00,
2013-05-08 06:11:00,46.5,43.2,29.67,SSW,203,0.0,0.0,88,0.00,,,0.00,WUHU216HW,2013-05-08 13:11:00,
2013-05-08 06:16:00,46.5,43.2,29.67,SSW,203,0.0,0.0,88,0.00,,,0.00,WUHU216HW,2013-05-08 13:16:00,
2013-05-08 06:21:00,46.7,43.4,29.67,SSW,203,0.0,0.0,88,0.00,,,0.00,WUHU216HW,2013-05-08 13:21:00,
2013-05-08 06:26:00,46.9,43.9,29.67,SSW,203,0.0,0.0,89,0.00,,,0.00,WUHU216HW,2013-05-08 13:26:00,
2013-05-08 06:31:00,46.9,43.9,29.67,SSW,203,0.0,0.0,89,0.00,,,0.00,WUHU216HW,2013-05-08 13:31:00,
2013-05-08 06:36:00,47.1,44.0,29.68,SSW,203,0.0,0.0,89,0.00,,,0.00,WUHU216HW,2013-05-08 13:36:00,
2013-05-08 06:41:00,47.1,44.0,29.67,SSW,203,0.0,0.0,89,0.00,,,0.00,WUHU216HW,2013-05-08 13:41:00,
2013-05-08 06:46:00,47.3,44.2,29.68,SSW,203,0.0,0.0,89,0.00,,,0.00,WUHU216HW,2013-05-08 13:46:00,
2013-05-08 06:51:00,47.4,44.4,29.68,SSW,203,0.0,0.0,89,0.00,,,0.00,WUHU216HW,2013-05-08 13:51:00,
2013-05-08 06:56:00,47.6,44.6,29.68,NW,315,0.0,0.0,89,0.00,,,0.00,WUHU216HW,2013-05-08 13:56:00,
2013-05-08 07:01:00,47.8,44.8,29.68,NW,315,0.0,0.0,89,0.00,,,0.00,WUHU216HW,2013-05-08 14:01:00,
2013-05-08 07:06:00,47.8,44.8,29.68,NW,315,0.0,0.0,89,0.00,,,0.00,WUHU216HW,2013-05-08 14:06:00,
2013-05-08 07:11:00,48.0,44.9,29.68,NW,315,0.0,0.0,89,0.00,,,0.00,WUHU216HW,2013-05-08 14:11:00,
2013-05-08 07:16:00,48.0,44.9,29.69,NW,315,0.0,0.0,89,0.00,,,0.00,WUHU216HW,2013-05-08 14:16:00,
2013-05-08 07:21:00,48.0,44.9,29.69,NW,315,0.0,0.0,89,0.00,,,0.00,WUHU216HW,2013-05-08 14:21:00,
2013-05-08 07:26:00,48.3,45.3,29.69,NW,315,0.0,0.0,89,0.00,,,0.00,WUHU216HW,2013-05-08 14:26:00,
2013-05-08 07:31:00,48.3,45.3,29.69,NW,315,0.0,0.0,89,0.00,,,0.00,WUHU216HW,2013-05-08 14:31:00,
2013-05-08 07:36:00,48.3,45.3,29.69,SSW,203,0.0,0.0,89,0.00,,,0.00,WUHU216HW,2013-05-08 14:36:00,
2013-05-08 07:41:00,48.3,45.3,29.69,SSW,203,0.0,0.0,89,0.00,,,0.00,WUHU216HW,2013-05-08 14:41:00,
2013-05-08 07:46:00,48.5,45.5,29.69,SSW,203,0.0,0.0,89,0.00,,,0.00,WUHU216HW,2013-05-08 14:46:00,
2013-05-08 07:51:00,48.7,45.9,29.69,SSW,203,0.0,0.0,90,0.00,,,0.00,WUHU216HW,2013-05-08 14:51:00,
2013-05-08 07:56:00,48.9,45.8,29.69,SSW,203,0.0,0.0,89,0.00,,,0.00,WUHU216HW,2013-05-08 14:56:00,
2013-05-08 08:01:00,49.1,45.9,29.69,WNW,293,0.0,0.0,89,0.00,,,0.00,WUHU216HW,2013-05-08 15:01:00,
2013-05-08 08:06:00,48.9,45.8,29.69,West,270,0.0,0.0,89,0.00,,,0.00,WUHU216HW,2013-05-08 15:06:00,
2013-05-08 08:11:00,49.2,46.1,29.69,NW,315,0.0,0.0,89,0.00,,,0.00,WUHU216HW,2013-05-08 15:11:00,
2013-05-08 08:16:00,49.2,46.1,29.70,NW,315,0.0,0.0,89,0.00,,,0.00,WUHU216HW,2013-05-08 15:16:00,
2013-05-08 08:21:00,49.2,46.1,29.70,NW,315,0.0,0.0,89,0.00,,,0.00,WUHU216HW,2013-05-08 15:21:00,
2013-05-08 08:26:00,49.6,46.4,29.69,NW,315,0.0,0.0,89,0.00,,,0.00,WUHU216HW,2013-05-08 15:26:00,
2013-05-08 08:31:00,49.8,46.6,29.69,NW,315,0.0,0.0,89,0.00,,,0.00,WUHU216HW,2013-05-08 15:31:00,
2013-05-08 08:36:00,49.8,46.6,29.69,NW,315,0.0,0.0,89,0.00,,,0.00,WUHU216HW,2013-05-08 15:36:00,
2013-05-08 08:41:00,50.1,46.6,29.70,NW,315,0.0,0.0,88,0.00,,,0.00,WUHU216HW,2013-05-08 15:41:00,
2013-05-08 08:46:00,50.1,46.6,29.70,WNW,293,0.0,0.0,88,0.00,,,0.00,WUHU216HW,2013-05-08 15:46:00,
2013-05-08 08:51:00,50.1,46.6,29.70,South,180,0.0,0.0,88,0.00,,,0.00,WUHU216HW,2013-05-08 15:51:00,
2013-05-08 08:56:00,50.3,46.8,29.70,SSW,203,0.0,0.0,88,0.00,,,0.00,WUHU216HW,2013-05-08 15:56:00,
2013-05-08 09:01:00,50.5,47.0,29.70,NNW,338,0.0,0.0,88,0.00,,,0.00,WUHU216HW,2013-05-08 16:01:00,
2013-05-08 09:06:00,50.7,47.4,29.70,WSW,248,0.0,0.0,88,0.00,,,0.00,WUHU216HW,2013-05-08 16:06:00,
2013-05-08 09:11:00,51.0,47.5,29.70,West,270,0.0,0.0,88,0.00,,,0.00,WUHU216HW,2013-05-08 16:11:00,
2013-05-08 09:16:00,51.0,47.5,29.70,West,270,0.0,0.0,88,0.00,,,0.00,WUHU216HW,2013-05-08 16:16:00,
2013-05-08 09:21:00,51.4,47.9,29.71,West,270,0.0,0.0,88,0.00,,,0.00,WUHU216HW,2013-05-08 16:21:00,
2013-05-08 09:26:00,51.6,47.8,29.71,SSW,203,0.0,0.0,87,0.00,,,0.00,WUHU216HW,2013-05-08 16:26:00,
2013-05-08 09:31:00,52.1,48.3,29.70,SSW,203,0.0,0.0,87,0.00,,,0.00,WUHU216HW,2013-05-08 16:31:00,
2013-05-08 09:36:00,52.3,48.7,29.70,NW,315,0.0,0.0,87,0.00,,,0.00,WUHU216HW,2013-05-08 16:36:00,
2013-05-08 09:41:00,52.8,48.5,29.70,NW,315,0.0,0.0,86,0.00,,,0.00,WUHU216HW,2013-05-08 16:41:00,
2013-05-08 09:46:00,52.8,48.7,29.70,SSE,158,0.0,0.0,86,0.00,,,0.00,WUHU216HW,2013-05-08 16:46:00,
2013-05-08 09:51:00,52.8,48.7,29.70,NNW,338,0.0,0.0,86,0.00,,,0.00,WUHU216HW,2013-05-08 16:51:00,
2013-05-08 09:56:00,53.2,49.1,29.70,NW,315,0.0,0.0,86,0.00,,,0.00,WUHU216HW,2013-05-08 16:56:00,
2013-05-08 10:01:00,53.7,49.6,29.70,WNW,293,0.0,0.0,86,0.00,,,0.00,WUHU216HW,2013-05-08 17:01:00,
2013-05-08 10:06:00,54.1,49.6,29.70,West,270,0.0,0.0,85,0.00,,,0.00,WUHU216HW,2013-05-08 17:06:00,
2013-05-08 10:11:00,54.1,49.3,29.69,South,180,0.0,0.0,84,0.00,,,0.00,WUHU216HW,2013-05-08 17:11:00,
2013-05-08 10:16:00,55.2,50.7,29.70,South,180,0.0,0.0,85,0.00,,,0.00,WUHU216HW,2013-05-08 17:16:00,
2013-05-08 10:21:00,56.4,51.0,29.70,South,180,0.0,0.0,82,0.00,,,0.00,WUHU216HW,2013-05-08 17:21:00,
2013-05-08 10:26:00,57.7,52.2,29.70,North,0,1.3,1.3,82,0.00,,,0.00,WUHU216HW,2013-05-08 17:26:00,
2013-05-08 10:31:00,58.8,53.0,29.70,NW,315,0.0,1.3,81,0.00,,,0.00,WUHU216HW,2013-05-08 17:31:00,
2013-05-08 10:36:00,58.8,52.3,29.70,North,0,3.5,3.5,79,0.00,,,0.00,WUHU216HW,2013-05-08 17:36:00,
2013-05-08 10:41:00,59.5,52.7,29.70,North,0,0.0,3.5,78,0.00,,,0.00,WUHU216HW,2013-05-08 17:41:00,
2013-05-08 10:46:00,60.9,53.7,29.69,North,0,0.0,3.5,77,0.00,,,0.00,WUHU216HW,2013-05-08 17:46:00,
2013-05-08 10:51:00,63.1,55.0,29.70,North,0,0.0,0.0,75,0.00,,,0.00,WUHU216HW,2013-05-08 17:51:00,
2013-05-08 10:56:00,64.5,55.3,29.70,NE,45,0.0,0.0,72,0.00,,,0.00,WUHU216HW,2013-05-08 17:56:00,
2013-05-08 11:01:00,64.7,55.1,29.69,South,180,0.0,0.0,71,0.00,,,0.00,WUHU216HW,2013-05-08 18:01:00,
2013-05-08 11:06:00,65.8,55.8,29.69,NW,315,0.0,0.0,69,0.00,,,0.00,WUHU216HW,2013-05-08 18:06:00,
2013-05-08 11:11:00,67.2,55.9,29.70,South,180,0.0,0.0,67,0.00,,,0.00,WUHU216HW,2013-05-08 18:11:00,
2013-05-08 11:16:00,67.8,56.4,29.69,WNW,293,0.0,0.0,67,0.00,,,0.00,WUHU216HW,2013-05-08 18:16:00,
2013-05-08 11:21:00,69.0,56.6,29.70,WNW,293,0.0,2.2,65,0.00,,,0.00,WUHU216HW,2013-05-08 18:21:00,
2013-05-08 11:27:00,69.0,56.3,29.70,NE,45,0.0,2.2,64,0.00,,,0.00,WUHU216HW,2013-05-08 18:27:00,
2013-05-08 11:32:00,69.6,56.8,29.70,North,0,0.0,0.0,64,0.00,,,0.00,WUHU216HW,2013-05-08 18:32:00,
2013-05-08 11:37:00,70.3,56.7,29.70,SSE,158,0.0,0.0,62,0.00,,,0.00,WUHU216HW,2013-05-08 18:37:00,
2013-05-08 11:42:00,70.8,56.7,29.69,WNW,293,0.0,0.0,61,0.00,,,0.00,WUHU216HW,2013-05-08 18:42:00,
2013-05-08 11:47:00,71.4,57.2,29.69,West,270,0.0,0.0,61,0.00,,,0.00,WUHU216HW,2013-05-08 18:47:00,
2013-05-08 11:52:00,71.4,56.8,29.69,SSW,203,0.0,0.0,60,0.00,,,0.00,WUHU216HW,2013-05-08 18:52:00,
2013-05-08 11:57:00,71.4,56.3,29.69,West,270,0.0,0.0,59,0.00,,,0.00,WUHU216HW,2013-05-08 18:57:00,
2013-05-08 12:02:00,71.2,56.1,29.69,West,270,0.0,0.0,59,0.00,,,0.00,WUHU216HW,2013-05-08 19:02:00,
2013-05-08 12:07:00,72.3,57.1,29.69,NNW,338,0.0,0.0,59,0.00,,,0.00,WUHU216HW,2013-05-08 19:07:00,
2013-05-08 12:12:00,72.6,56.9,29.69,South,180,0.8,0.8,58,0.00,,,0.00,WUHU216HW,2013-05-08 19:12:00,
2013-05-08 12:17:00,72.6,56.4,29.69,NW,315,0.0,0.8,57,0.00,,,0.00,WUHU216HW,2013-05-08 19:17:00,
2013-05-08 12:22:00,72.8,56.6,29.69,SW,225,0.0,0.8,57,0.00,,,0.00,WUHU216HW,2013-05-08 19:22:00,
2013-05-08 12:27:00,72.6,56.9,29.68,North,0,2.0,2.0,58,0.00,,,0.00,WUHU216HW,2013-05-08 19:27:00,
2013-05-08 12:32:00,73.2,56.9,29.69,WNW,293,0.0,2.0,57,0.00,,,0.00,WUHU216HW,2013-05-08 19:32:00,
2013-05-08 12:37:00,72.6,56.4,29.69,West,270,0.0,2.0,57,0.00,,,0.00,WUHU216HW,2013-05-08 19:37:00,
2013-05-08 12:42:00,73.0,56.8,29.69,NNE,23,2.4,2.4,57,0.00,,,0.00,WUHU216HW,2013-05-08 19:42:00,
2013-05-08 12:47:00,73.2,56.4,29.68,North,0,0.0,2.4,56,0.00,,,0.00,WUHU216HW,2013-05-08 19:47:00,
2013-05-08 12:52:00,72.8,56.1,29.68,WNW,293,0.0,2.4,56,0.00,,,0.00,WUHU216HW,2013-05-08 19:52:00,
2013-05-08 12:57:00,73.0,55.7,29.68,NNW,338,0.0,2.4,55,0.00,,,0.00,WUHU216HW,2013-05-08 19:57:00,
2013-05-08 13:02:00,73.2,56.4,29.69,WNW,293,1.3,2.4,56,0.00,,,0.00,WUHU216HW,2013-05-08 20:02:00,
2013-05-08 13:07:00,73.0,55.7,29.68,North,0,1.3,1.3,55,0.00,,,0.00,WUHU216HW,2013-05-08 20:07:00,
2013-05-08 13:12:00,73.2,56.4,29.68,NE,45,0.0,1.3,56,0.00,,,0.00,WUHU216HW,2013-05-08 20:12:00,
2013-05-08 13:17:00,73.0,55.7,29.68,SSW,203,0.0,1.3,55,0.00,,,0.00,WUHU216HW,2013-05-08 20:17:00,
2013-05-08 13:22:00,73.0,55.7,29.68,South,180,0.0,0.0,55,0.00,,,0.00,WUHU216HW,2013-05-08 20:22:00,
2013-05-08 13:27:00,72.6,55.4,29.69,South,180,0.0,0.0,55,0.00,,,0.00,WUHU216HW,2013-05-08 20:27:00,
2013-05-08 13:32:00,72.3,55.1,29.69,West,270,0.0,0.0,55,0.00,,,0.00,WUHU216HW,2013-05-08 20:32:00,
2013-05-08 13:37:00,72.3,55.1,29.69,North,0,0.0,0.0,55,0.00,,,0.00,WUHU216HW,2013-05-08 20:37:00,
2013-05-08 13:42:00,72.8,55.6,29.68,NW,315,0.0,0.0,55,0.00,,,0.00,WUHU216HW,2013-05-08 20:42:00,
2013-05-08 13:47:00,72.6,54.9,29.68,WNW,293,0.0,0.0,54,0.00,,,0.00,WUHU216HW,2013-05-08 20:47:00,
2013-05-08 13:52:00,72.8,55.6,29.69,North,0,1.7,1.7,55,0.00,,,0.00,WUHU216HW,2013-05-08 20:52:00,
2013-05-08 13:57:00,72.6,55.4,29.68,North,0,0.0,1.7,55,0.00,,,0.00,WUHU216HW,2013-05-08 20:57:00,
2013-05-08 14:02:00,72.5,55.3,29.68,NE,45,0.0,0.0,55,0.00,,,0.00,WUHU216HW,2013-05-08 21:02:00,
2013-05-08 14:07:00,72.1,54.9,29.69,SSE,158,0.0,0.0,55,0.00,,,0.00,WUHU216HW,2013-05-08 21:07:00,
2013-05-08 14:12:00,71.7,54.6,29.68,West,270,0.0,0.0,55,0.00,,,0.00,WUHU216HW,2013-05-08 21:12:00,
2013-05-08 14:17:00,71.2,54.1,29.69,SW,225,0.0,0.0,55,0.00,,,0.00,WUHU216HW,2013-05-08 21:17:00,
2013-05-08 14:22:00,71.4,54.8,29.69,WNW,293,0.0,0.0,56,0.00,,,0.00,WUHU216HW,2013-05-08 21:22:00,
2013-05-08 14:27:00,71.6,55.5,29.69,West,270,0.0,0.0,57,0.00,,,0.00,WUHU216HW,2013-05-08 21:27:00,
2013-05-08 14:32:00,71.2,54.6,29.69,SSW,203,0.0,0.0,56,0.00,,,0.00,WUHU216HW,2013-05-08 21:32:00,
2013-05-08 14:37:00,71.0,54.5,29.69,SW,225,0.0,0.0,56,0.00,,,0.00,WUHU216HW,2013-05-08 21:37:00,